sensor_id;sensor_type;location;lat;lon;timestamp;pressure;altitude;pressure_sealevel;temperature;humidity
32638;BME280;19045;52.268;10.506;2022-07-29T00:00:51;100963.56;;;17.82;51.16
32638;BME280;19045;52.268;10.506;2022-07-29T00:03:17;100960.84;;;17.82;50.74
32638;BME280;19045;52.268;10.506;2022-07-29T00:05:44;100964.88;;;17.84;51.14
32638;BME280;19045;52.268;10.506;2022-07-29T00:08:11;100962.47;;;17.83;51.11
32638;BME280;19045;52.268;10.506;2022-07-29T00:10:38;100952.69;;;17.82;51.11
32638;BME280;19045;52.268;10.506;2022-07-29T00:13:06;100961.06;;;17.85;50.91
32638;BME280;19045;52.268;10.506;2022-07-29T00:15:33;100947.25;;;17.82;51.18
32638;BME280;19045;52.268;10.506;2022-07-29T00:18:00;100950.53;;;17.79;51.02
32638;BME280;19045;52.268;10.506;2022-07-29T00:20:26;100941.94;;;17.72;51.35
32638;BME280;19045;52.268;10.506;2022-07-29T00:22:53;100946.56;;;17.71;51.47
32638;BME280;19045;52.268;10.506;2022-07-29T00:25:20;100944.16;;;17.70;51.09
32638;BME280;19045;52.268;10.506;2022-07-29T00:27:47;100936.78;;;17.70;51.36
32638;BME280;19045;52.268;10.506;2022-07-29T00:30:15;100925.50;;;17.63;51.82
32638;BME280;19045;52.268;10.506;2022-07-29T00:32:42;100929.28;;;17.62;51.76
32638;BME280;19045;52.268;10.506;2022-07-29T00:35:09;100925.41;;;17.68;51.52
32638;BME280;19045;52.268;10.506;2022-07-29T00:37:53;100926.22;;;17.69;51.68
32638;BME280;19045;52.268;10.506;2022-07-29T00:40:20;100924.00;;;17.71;51.49
32638;BME280;19045;52.268;10.506;2022-07-29T00:42:49;100912.50;;;17.79;51.52
32638;BME280;19045;52.268;10.506;2022-07-29T00:45:18;100909.19;;;17.82;50.97
32638;BME280;19045;52.268;10.506;2022-07-29T00:47:45;100913.00;;;17.81;50.89
32638;BME280;19045;52.268;10.506;2022-07-29T00:50:12;100909.63;;;17.89;51.17
32638;BME280;19045;52.268;10.506;2022-07-29T00:52:40;100908.50;;;17.90;50.61
32638;BME280;19045;52.268;10.506;2022-07-29T00:55:09;100906.38;;;17.87;50.49
32638;BME280;19045;52.268;10.506;2022-07-29T00:57:37;100907.88;;;17.79;50.77
32638;BME280;19045;52.268;10.506;2022-07-29T01:00:04;100902.72;;;17.78;50.51
32638;BME280;19045;52.268;10.506;2022-07-29T01:02:33;100904.41;;;17.74;50.88
32638;BME280;19045;52.268;10.506;2022-07-29T01:05:00;100905.78;;;17.71;51.32
32638;BME280;19045;52.268;10.506;2022-07-29T01:07:28;100901.19;;;17.72;51.09
32638;BME280;19045;52.268;10.506;2022-07-29T01:09:56;100899.41;;;17.81;51.13
32638;BME280;19045;52.268;10.506;2022-07-29T01:12:25;100900.94;;;17.87;51.17
32638;BME280;19045;52.268;10.506;2022-07-29T01:14:54;100889.56;;;17.85;51.02
32638;BME280;19045;52.268;10.506;2022-07-29T01:17:25;100891.78;;;17.83;51.08
32638;BME280;19045;52.268;10.506;2022-07-29T01:19:58;100893.91;;;17.86;50.53
32638;BME280;19045;52.268;10.506;2022-07-29T01:22:42;100891.56;;;17.79;50.67
32638;BME280;19045;52.268;10.506;2022-07-29T01:25:32;100883.78;;;17.73;51.00
32638;BME280;19045;52.268;10.506;2022-07-29T01:28:17;100891.84;;;17.78;51.04
32638;BME280;19045;52.268;10.506;2022-07-29T01:30:51;100890.44;;;17.80;50.52
32638;BME280;19045;52.268;10.506;2022-07-29T01:33:20;100886.72;;;17.76;51.29
32638;BME280;19045;52.268;10.506;2022-07-29T01:36:19;100880.75;;;17.74;50.94
32638;BME280;19045;52.268;10.506;2022-07-29T01:38:54;100881.06;;;17.73;50.50
32638;BME280;19045;52.268;10.506;2022-07-29T01:41:25;100877.59;;;17.67;51.30
32638;BME280;19045;52.268;10.506;2022-07-29T01:43:57;100877.38;;;17.64;51.29
32638;BME280;19045;52.268;10.506;2022-07-29T01:46:29;100870.91;;;17.60;51.25
32638;BME280;19045;52.268;10.506;2022-07-29T01:49:00;100854.63;;;17.60;51.16
32638;BME280;19045;52.268;10.506;2022-07-29T01:51:31;100863.59;;;17.55;51.48
32638;BME280;19045;52.268;10.506;2022-07-29T01:54:02;100868.19;;;17.60;51.46
32638;BME280;19045;52.268;10.506;2022-07-29T01:56:31;100866.56;;;17.59;51.50
32638;BME280;19045;52.268;10.506;2022-07-29T01:59:01;100861.97;;;17.59;51.64
32638;BME280;19045;52.268;10.506;2022-07-29T02:01:32;100849.69;;;17.62;51.42
32638;BME280;19045;52.268;10.506;2022-07-29T02:04:01;100855.13;;;17.62;51.46
32638;BME280;19045;52.268;10.506;2022-07-29T02:06:30;100850.78;;;17.61;51.22
32638;BME280;19045;52.268;10.506;2022-07-29T02:08:59;100853.97;;;17.44;51.54
32638;BME280;19045;52.268;10.506;2022-07-29T02:11:27;100853.81;;;17.35;51.74
32638;BME280;19045;52.268;10.506;2022-07-29T02:13:56;100856.06;;;17.28;52.10
32638;BME280;19045;52.268;10.506;2022-07-29T02:16:26;100850.66;;;17.28;52.12
32638;BME280;19045;52.268;10.506;2022-07-29T02:18:57;100849.09;;;17.22;52.74
32638;BME280;19045;52.268;10.506;2022-07-29T02:21:27;100852.97;;;17.16;52.41
32638;BME280;19045;52.268;10.506;2022-07-29T02:23:55;100841.22;;;17.21;52.57
32638;BME280;19045;52.268;10.506;2022-07-29T02:26:24;100845.94;;;17.15;52.69
32638;BME280;19045;52.268;10.506;2022-07-29T02:28:55;100845.09;;;17.15;52.88
32638;BME280;19045;52.268;10.506;2022-07-29T02:31:25;100838.38;;;17.12;53.08
32638;BME280;19045;52.268;10.506;2022-07-29T02:33:52;100834.69;;;17.03;53.27
32638;BME280;19045;52.268;10.506;2022-07-29T02:36:23;100824.91;;;17.02;53.61
32638;BME280;19045;52.268;10.506;2022-07-29T02:38:52;100829.72;;;17.10;53.54
32638;BME280;19045;52.268;10.506;2022-07-29T02:41:26;100827.28;;;17.09;53.45
32638;BME280;19045;52.268;10.506;2022-07-29T02:43:56;100815.56;;;17.13;53.07
32638;BME280;19045;52.268;10.506;2022-07-29T02:46:29;100829.13;;;17.13;52.94
32638;BME280;19045;52.268;10.506;2022-07-29T02:49:00;100819.28;;;17.17;53.02
32638;BME280;19045;52.268;10.506;2022-07-29T02:51:34;100817.22;;;17.09;53.34
32638;BME280;19045;52.268;10.506;2022-07-29T02:54:06;100824.06;;;17.07;53.07
32638;BME280;19045;52.268;10.506;2022-07-29T02:56:34;100825.16;;;17.05;53.30
32638;BME280;19045;52.268;10.506;2022-07-29T02:59:06;100823.13;;;16.92;53.72
32638;BME280;19045;52.268;10.506;2022-07-29T03:01:34;100829.19;;;16.84;53.69
32638;BME280;19045;52.268;10.506;2022-07-29T03:04:03;100835.06;;;16.91;53.88
32638;BME280;19045;52.268;10.506;2022-07-29T03:06:32;100824.97;;;16.97;53.86
32638;BME280;19045;52.268;10.506;2022-07-29T03:09:01;100827.63;;;17.02;53.75
32638;BME280;19045;52.268;10.506;2022-07-29T03:11:28;100830.81;;;16.85;53.79
32638;BME280;19045;52.268;10.506;2022-07-29T03:13:56;100834.22;;;16.72;54.45
32638;BME280;19045;52.268;10.506;2022-07-29T03:16:23;100836.34;;;16.75;54.67
32638;BME280;19045;52.268;10.506;2022-07-29T03:18:50;100837.25;;;16.66;54.86
32638;BME280;19045;52.268;10.506;2022-07-29T03:21:17;100832.69;;;16.61;55.78
32638;BME280;19045;52.268;10.506;2022-07-29T03:23:46;100830.78;;;16.62;55.71
32638;BME280;19045;52.268;10.506;2022-07-29T03:26:12;100829.97;;;16.61;56.33
32638;BME280;19045;52.268;10.506;2022-07-29T03:28:39;100828.88;;;16.62;55.86
32638;BME280;19045;52.268;10.506;2022-07-29T03:31:06;100829.16;;;16.61;56.01
32638;BME280;19045;52.268;10.506;2022-07-29T03:33:32;100834.47;;;16.71;56.06
32638;BME280;19045;52.268;10.506;2022-07-29T03:35:59;100833.38;;;16.72;55.50
32638;BME280;19045;52.268;10.506;2022-07-29T03:38:29;100829.06;;;16.71;56.09
32638;BME280;19045;52.268;10.506;2022-07-29T03:41:02;100817.00;;;16.82;56.05
32638;BME280;19045;52.268;10.506;2022-07-29T03:43:30;100816.19;;;16.81;55.62
32638;BME280;19045;52.268;10.506;2022-07-29T03:46:00;100814.78;;;16.84;55.20
32638;BME280;19045;52.268;10.506;2022-07-29T03:48:28;100810.19;;;16.84;55.42
32638;BME280;19045;52.268;10.506;2022-07-29T03:50:58;100811.06;;;16.80;55.84
32638;BME280;19045;52.268;10.506;2022-07-29T03:53:25;100810.59;;;16.73;56.10
32638;BME280;19045;52.268;10.506;2022-07-29T03:55:54;100806.56;;;16.70;56.25
32638;BME280;19045;52.268;10.506;2022-07-29T03:58:26;100811.91;;;16.75;55.82
32638;BME280;19045;52.268;10.506;2022-07-29T04:00:53;100814.25;;;16.87;55.24
32638;BME280;19045;52.268;10.506;2022-07-29T04:03:20;100822.91;;;16.89;55.19
32638;BME280;19045;52.268;10.506;2022-07-29T04:05:58;100812.84;;;16.89;55.50
32638;BME280;19045;52.268;10.506;2022-07-29T04:08:25;100821.00;;;16.89;55.38
32638;BME280;19045;52.268;10.506;2022-07-29T04:10:51;100820.69;;;16.91;55.41
32638;BME280;19045;52.268;10.506;2022-07-29T04:13:18;100824.44;;;16.95;55.22
32638;BME280;19045;52.268;10.506;2022-07-29T04:15:46;100807.66;;;16.93;55.59
32638;BME280;19045;52.268;10.506;2022-07-29T04:18:13;100807.59;;;16.98;54.92
32638;BME280;19045;52.268;10.506;2022-07-29T04:20:40;100821.69;;;17.00;54.96
32638;BME280;19045;52.268;10.506;2022-07-29T04:23:06;100812.19;;;16.97;55.23
32638;BME280;19045;52.268;10.506;2022-07-29T04:25:37;100827.13;;;17.00;55.56
32638;BME280;19045;52.268;10.506;2022-07-29T04:28:04;100821.34;;;17.07;54.88
32638;BME280;19045;52.268;10.506;2022-07-29T04:30:31;100815.78;;;17.17;55.25
32638;BME280;19045;52.268;10.506;2022-07-29T04:33:00;100818.41;;;17.22;54.87
32638;BME280;19045;52.268;10.506;2022-07-29T04:35:27;100814.03;;;17.26;54.93
32638;BME280;19045;52.268;10.506;2022-07-29T04:37:54;100816.38;;;17.32;54.99
32638;BME280;19045;52.268;10.506;2022-07-29T04:40:21;100813.13;;;17.30;54.94
32638;BME280;19045;52.268;10.506;2022-07-29T04:42:48;100822.84;;;17.36;55.36
32638;BME280;19045;52.268;10.506;2022-07-29T04:45:14;100819.16;;;17.27;55.47
32638;BME280;19045;52.268;10.506;2022-07-29T04:47:41;100827.53;;;17.31;55.23
32638;BME280;19045;52.268;10.506;2022-07-29T04:50:10;100828.66;;;17.30;55.61
32638;BME280;19045;52.268;10.506;2022-07-29T04:52:37;100830.41;;;17.39;55.08
32638;BME280;19045;52.268;10.506;2022-07-29T04:55:05;100830.91;;;17.41;55.00
32638;BME280;19045;52.268;10.506;2022-07-29T04:57:32;100823.06;;;17.40;55.27
32638;BME280;19045;52.268;10.506;2022-07-29T04:59:59;100832.81;;;17.41;55.14
32638;BME280;19045;52.268;10.506;2022-07-29T05:02:26;100820.78;;;17.47;55.26
32638;BME280;19045;52.268;10.506;2022-07-29T05:04:53;100828.88;;;17.52;55.28
32638;BME280;19045;52.268;10.506;2022-07-29T05:07:21;100823.13;;;17.53;55.55
32638;BME280;19045;52.268;10.506;2022-07-29T05:09:48;100827.47;;;17.54;55.79
32638;BME280;19045;52.268;10.506;2022-07-29T05:12:15;100820.66;;;17.57;55.36
32638;BME280;19045;52.268;10.506;2022-07-29T05:14:42;100812.69;;;17.66;55.20
32638;BME280;19045;52.268;10.506;2022-07-29T05:17:09;100821.06;;;17.69;54.72
32638;BME280;19045;52.268;10.506;2022-07-29T05:19:35;100804.28;;;17.81;54.61
32638;BME280;19045;52.268;10.506;2022-07-29T05:22:02;100803.63;;;17.89;54.64
32638;BME280;19045;52.268;10.506;2022-07-29T05:24:30;100812.50;;;17.94;54.27
32638;BME280;19045;52.268;10.506;2022-07-29T05:26:57;100804.56;;;17.98;54.26
32638;BME280;19045;52.268;10.506;2022-07-29T05:29:24;100813.38;;;18.08;54.30
32638;BME280;19045;52.268;10.506;2022-07-29T05:31:51;100808.94;;;18.13;53.98
32638;BME280;19045;52.268;10.506;2022-07-29T05:34:18;100809.56;;;18.23;53.53
32638;BME280;19045;52.268;10.506;2022-07-29T05:36:45;100812.53;;;18.40;53.25
32638;BME280;19045;52.268;10.506;2022-07-29T05:39:12;100811.84;;;18.48;53.24
32638;BME280;19045;52.268;10.506;2022-07-29T05:41:40;100813.75;;;18.48;53.18
32638;BME280;19045;52.268;10.506;2022-07-29T05:44:07;100811.50;;;18.55;53.32
32638;BME280;19045;52.268;10.506;2022-07-29T05:46:34;100810.28;;;18.61;52.82
32638;BME280;19045;52.268;10.506;2022-07-29T05:49:00;100815.63;;;18.66;53.01
32638;BME280;19045;52.268;10.506;2022-07-29T05:51:28;100820.66;;;18.73;52.99
32638;BME280;19045;52.268;10.506;2022-07-29T05:53:55;100825.91;;;18.83;52.89
32638;BME280;19045;52.268;10.506;2022-07-29T05:56:22;100830.34;;;19.06;52.71
32638;BME280;19045;52.268;10.506;2022-07-29T05:58:50;100825.47;;;19.30;51.79
32638;BME280;19045;52.268;10.506;2022-07-29T06:01:17;100826.91;;;19.41;51.22
32638;BME280;19045;52.268;10.506;2022-07-29T06:03:44;100828.09;;;19.49;51.13
32638;BME280;19045;52.268;10.506;2022-07-29T06:06:11;100829.44;;;19.51;51.26
32638;BME280;19045;52.268;10.506;2022-07-29T06:08:38;100835.16;;;19.50;51.14
32638;BME280;19045;52.268;10.506;2022-07-29T06:11:05;100840.63;;;19.50;51.13
32638;BME280;19045;52.268;10.506;2022-07-29T06:13:33;100838.56;;;19.55;51.02
32638;BME280;19045;52.268;10.506;2022-07-29T06:16:01;100839.34;;;19.70;50.65
32638;BME280;19045;52.268;10.506;2022-07-29T06:18:27;100833.00;;;19.74;50.47
32638;BME280;19045;52.268;10.506;2022-07-29T06:20:54;100821.28;;;19.74;50.46
32638;BME280;19045;52.268;10.506;2022-07-29T06:23:21;100824.19;;;19.77;50.34
32638;BME280;19045;52.268;10.506;2022-07-29T06:25:48;100814.09;;;20.00;50.09
32638;BME280;19045;52.268;10.506;2022-07-29T06:28:14;100804.75;;;20.15;49.72
32638;BME280;19045;52.268;10.506;2022-07-29T06:30:41;100806.19;;;20.34;49.25
32638;BME280;19045;52.268;10.506;2022-07-29T06:33:09;100810.84;;;20.42;49.09
32638;BME280;19045;52.268;10.506;2022-07-29T06:35:42;100812.38;;;20.57;48.92
32638;BME280;19045;52.268;10.506;2022-07-29T06:38:10;100808.38;;;20.54;48.72
32638;BME280;19045;52.268;10.506;2022-07-29T06:40:41;100810.75;;;20.47;48.91
32638;BME280;19045;52.268;10.506;2022-07-29T06:43:25;100807.44;;;20.28;49.46
32638;BME280;19045;52.268;10.506;2022-07-29T06:45:52;100806.03;;;20.17;49.60
32638;BME280;19045;52.268;10.506;2022-07-29T06:48:20;100803.94;;;20.14;50.05
32638;BME280;19045;52.268;10.506;2022-07-29T06:50:47;100811.75;;;20.29;49.46
32638;BME280;19045;52.268;10.506;2022-07-29T06:53:14;100810.66;;;20.39;48.98
32638;BME280;19045;52.268;10.506;2022-07-29T06:55:40;100805.75;;;20.49;49.25
32638;BME280;19045;52.268;10.506;2022-07-29T06:58:07;100806.66;;;20.67;48.85
32638;BME280;19045;52.268;10.506;2022-07-29T07:00:34;100799.94;;;20.82;48.82
32638;BME280;19045;52.268;10.506;2022-07-29T07:03:01;100810.75;;;20.87;48.36
32638;BME280;19045;52.268;10.506;2022-07-29T07:05:29;100815.19;;;21.22;48.00
32638;BME280;19045;52.268;10.506;2022-07-29T07:07:56;100820.09;;;21.51;46.70
32638;BME280;19045;52.268;10.506;2022-07-29T07:10:23;100811.56;;;21.87;45.98
32638;BME280;19045;52.268;10.506;2022-07-29T07:12:50;100822.31;;;22.17;45.63
32638;BME280;19045;52.268;10.506;2022-07-29T07:15:17;100825.19;;;22.38;44.77
32638;BME280;19045;52.268;10.506;2022-07-29T07:17:47;100821.59;;;22.63;44.30
32638;BME280;19045;52.268;10.506;2022-07-29T07:20:14;100820.31;;;22.99;43.86
32638;BME280;19045;52.268;10.506;2022-07-29T07:22:42;100816.16;;;23.22;43.58
32638;BME280;19045;52.268;10.506;2022-07-29T07:25:10;100808.31;;;23.41;42.86
32638;BME280;19045;52.268;10.506;2022-07-29T07:27:37;100801.13;;;22.99;43.68
32638;BME280;19045;52.268;10.506;2022-07-29T07:30:06;100789.78;;;22.80;44.57
32638;BME280;19045;52.268;10.506;2022-07-29T07:32:34;100801.13;;;22.70;44.50
32638;BME280;19045;52.268;10.506;2022-07-29T07:35:02;100790.88;;;22.41;44.53
32638;BME280;19045;52.268;10.506;2022-07-29T07:37:30;100779.44;;;22.85;44.64
32638;BME280;19045;52.268;10.506;2022-07-29T07:39:58;100782.09;;;23.52;42.70
32638;BME280;19045;52.268;10.506;2022-07-29T07:42:26;100780.91;;;24.15;41.14
32638;BME280;19045;52.268;10.506;2022-07-29T07:44:53;100786.13;;;24.65;40.71
32638;BME280;19045;52.268;10.506;2022-07-29T07:47:20;100782.22;;;24.66;40.40
32638;BME280;19045;52.268;10.506;2022-07-29T07:49:49;100784.66;;;24.68;40.65
32638;BME280;19045;52.268;10.506;2022-07-29T07:52:16;100788.56;;;24.91;39.86
32638;BME280;19045;52.268;10.506;2022-07-29T07:54:44;100784.69;;;24.92;39.70
32638;BME280;19045;52.268;10.506;2022-07-29T07:57:12;100785.91;;;24.58;40.69
32638;BME280;19045;52.268;10.506;2022-07-29T07:59:39;100778.78;;;24.57;40.16
32638;BME280;19045;52.268;10.506;2022-07-29T08:02:07;100780.00;;;24.24;41.34
32638;BME280;19045;52.268;10.506;2022-07-29T08:04:34;100777.16;;;23.99;41.89
32638;BME280;19045;52.268;10.506;2022-07-29T08:07:01;100779.00;;;24.07;42.05
32638;BME280;19045;52.268;10.506;2022-07-29T08:09:29;100774.03;;;24.22;41.62
32638;BME280;19045;52.268;10.506;2022-07-29T08:11:56;100768.63;;;24.13;41.60
32638;BME280;19045;52.268;10.506;2022-07-29T08:14:24;100776.09;;;23.92;42.11
32638;BME280;19045;52.268;10.506;2022-07-29T08:16:51;100773.66;;;23.78;42.35
32638;BME280;19045;52.268;10.506;2022-07-29T08:19:19;100774.44;;;23.79;42.31
32638;BME280;19045;52.268;10.506;2022-07-29T08:21:46;100782.56;;;23.54;43.09
32638;BME280;19045;52.268;10.506;2022-07-29T08:24:13;100779.28;;;23.61;43.61
32638;BME280;19045;52.268;10.506;2022-07-29T08:26:57;100783.28;;;23.63;43.13
32638;BME280;19045;52.268;10.506;2022-07-29T08:29:26;100792.00;;;23.86;42.84
32638;BME280;19045;52.268;10.506;2022-07-29T08:31:52;100791.75;;;24.12;42.32
32638;BME280;19045;52.268;10.506;2022-07-29T08:34:19;100788.16;;;24.32;41.28
32638;BME280;19045;52.268;10.506;2022-07-29T08:36:46;100786.34;;;24.48;41.09
32638;BME280;19045;52.268;10.506;2022-07-29T08:39:13;100781.56;;;25.06;40.54
32638;BME280;19045;52.268;10.506;2022-07-29T08:41:40;100789.00;;;25.69;39.43
32638;BME280;19045;52.268;10.506;2022-07-29T08:44:07;100773.31;;;26.13;38.08
32638;BME280;19045;52.268;10.506;2022-07-29T08:46:37;100782.38;;;26.57;37.45
32638;BME280;19045;52.268;10.506;2022-07-29T08:49:04;100787.47;;;27.21;35.98
32638;BME280;19045;52.268;10.506;2022-07-29T08:51:32;100787.53;;;27.25;36.16
32638;BME280;19045;52.268;10.506;2022-07-29T08:54:01;100783.22;;;27.08;36.14
32638;BME280;19045;52.268;10.506;2022-07-29T08:56:28;100787.63;;;26.94;36.69
32638;BME280;19045;52.268;10.506;2022-07-29T08:58:58;100783.88;;;26.86;36.44
32638;BME280;19045;52.268;10.506;2022-07-29T09:01:27;100782.44;;;26.77;37.21
32638;BME280;19045;52.268;10.506;2022-07-29T09:03:59;100785.84;;;26.70;36.93
32638;BME280;19045;52.268;10.506;2022-07-29T09:06:30;100782.53;;;26.49;36.82
32638;BME280;19045;52.268;10.506;2022-07-29T09:08:59;100779.25;;;26.59;37.20
32638;BME280;19045;52.268;10.506;2022-07-29T09:11:26;100784.75;;;26.59;37.07
32638;BME280;19045;52.268;10.506;2022-07-29T09:13:53;100777.13;;;26.52;37.34
32638;BME280;19045;52.268;10.506;2022-07-29T09:16:20;100775.16;;;26.68;37.07
32638;BME280;19045;52.268;10.506;2022-07-29T09:18:47;100776.16;;;26.60;37.03
32638;BME280;19045;52.268;10.506;2022-07-29T09:21:17;100780.69;;;26.09;38.14
32638;BME280;19045;52.268;10.506;2022-07-29T09:24:04;100779.34;;;25.76;38.67
32638;BME280;19045;52.268;10.506;2022-07-29T09:26:33;100777.66;;;25.71;38.86
32638;BME280;19045;52.268;10.506;2022-07-29T09:29:08;100780.06;;;25.73;38.54
32638;BME280;19045;52.268;10.506;2022-07-29T09:31:37;100781.56;;;25.70;38.75
32638;BME280;19045;52.268;10.506;2022-07-29T09:34:05;100780.75;;;25.97;38.29
32638;BME280;19045;52.268;10.506;2022-07-29T09:36:40;100769.44;;;27.43;35.91
32638;BME280;19045;52.268;10.506;2022-07-29T09:39:08;100768.22;;;28.40;34.41
32638;BME280;19045;52.268;10.506;2022-07-29T09:41:49;100766.84;;;29.02;33.31
32638;BME280;19045;52.268;10.506;2022-07-29T09:44:18;100762.34;;;29.20;32.83
32638;BME280;19045;52.268;10.506;2022-07-29T09:46:56;100763.56;;;29.49;32.67
32638;BME280;19045;52.268;10.506;2022-07-29T09:49:24;100761.81;;;29.67;32.45
32638;BME280;19045;52.268;10.506;2022-07-29T09:52:04;100755.19;;;30.09;31.49
32638;BME280;19045;52.268;10.506;2022-07-29T09:54:32;100751.28;;;30.57;31.09
32638;BME280;19045;52.268;10.506;2022-07-29T09:57:03;100758.00;;;31.07;31.08
32638;BME280;19045;52.268;10.506;2022-07-29T09:59:31;100756.41;;;31.06;30.27
32638;BME280;19045;52.268;10.506;2022-07-29T10:01:59;100747.38;;;30.62;31.20
32638;BME280;19045;52.268;10.506;2022-07-29T10:04:37;100752.03;;;30.51;31.46
32638;BME280;19045;52.268;10.506;2022-07-29T10:07:07;100749.41;;;30.28;31.48
32638;BME280;19045;52.268;10.506;2022-07-29T10:09:35;100747.34;;;30.18;31.76
32638;BME280;19045;52.268;10.506;2022-07-29T10:12:06;100739.19;;;29.95;32.43
32638;BME280;19045;52.268;10.506;2022-07-29T10:14:35;100735.34;;;29.40;32.42
32638;BME280;19045;52.268;10.506;2022-07-29T10:17:04;100735.56;;;28.98;33.75
32638;BME280;19045;52.268;10.506;2022-07-29T10:19:31;100734.84;;;28.52;34.10
32638;BME280;19045;52.268;10.506;2022-07-29T10:22:00;100731.28;;;28.06;35.20
32638;BME280;19045;52.268;10.506;2022-07-29T10:24:29;100735.88;;;27.80;35.50
32638;BME280;19045;52.268;10.506;2022-07-29T10:26:58;100737.34;;;27.54;36.14
32638;BME280;19045;52.268;10.506;2022-07-29T10:29:26;100734.84;;;27.30;36.85
32638;BME280;19045;52.268;10.506;2022-07-29T10:32:10;100733.06;;;27.03;36.82
32638;BME280;19045;52.268;10.506;2022-07-29T10:35:11;100733.88;;;26.72;37.51
32638;BME280;19045;52.268;10.506;2022-07-29T10:37:51;100730.09;;;26.61;37.72
32638;BME280;19045;52.268;10.506;2022-07-29T10:40:28;100731.69;;;26.46;38.07
32638;BME280;19045;52.268;10.506;2022-07-29T10:43:17;100726.81;;;26.40;37.98
32638;BME280;19045;52.268;10.506;2022-07-29T10:45:45;100726.47;;;26.41;38.32
32638;BME280;19045;52.268;10.506;2022-07-29T10:48:13;100719.34;;;26.40;38.27
32638;BME280;19045;52.268;10.506;2022-07-29T10:50:54;100715.44;;;26.26;38.32
32638;BME280;19045;52.268;10.506;2022-07-29T10:53:22;100716.44;;;26.05;39.04
32638;BME280;19045;52.268;10.506;2022-07-29T10:55:51;100717.75;;;25.96;39.03
32638;BME280;19045;52.268;10.506;2022-07-29T10:58:20;100714.81;;;25.89;39.09
32638;BME280;19045;52.268;10.506;2022-07-29T11:00:48;100717.03;;;25.83;39.40
32638;BME280;19045;52.268;10.506;2022-07-29T11:03:43;100722.34;;;25.76;38.97
32638;BME280;19045;52.268;10.506;2022-07-29T11:06:12;100719.03;;;25.55;39.18
32638;BME280;19045;52.268;10.506;2022-07-29T11:08:39;100711.56;;;25.43;39.36
32638;BME280;19045;52.268;10.506;2022-07-29T11:11:37;100711.38;;;25.36;39.89
32638;BME280;19045;52.268;10.506;2022-07-29T11:14:06;100718.81;;;25.36;39.48
32638;BME280;19045;52.268;10.506;2022-07-29T11:17:01;100715.06;;;25.28;39.69
32638;BME280;19045;52.268;10.506;2022-07-29T11:19:29;100716.38;;;25.18;39.90
32638;BME280;19045;52.268;10.506;2022-07-29T11:21:56;100714.41;;;25.19;39.94
32638;BME280;19045;52.268;10.506;2022-07-29T11:24:25;100711.06;;;25.26;39.94
32638;BME280;19045;52.268;10.506;2022-07-29T11:27:16;100703.38;;;25.19;39.77
32638;BME280;19045;52.268;10.506;2022-07-29T11:29:52;100706.50;;;25.17;40.01
32638;BME280;19045;52.268;10.506;2022-07-29T11:32:21;100706.28;;;25.10;40.17
32638;BME280;19045;52.268;10.506;2022-07-29T11:34:49;100705.59;;;25.13;40.77
32638;BME280;19045;52.268;10.506;2022-07-29T11:37:25;100702.25;;;25.20;40.83
32638;BME280;19045;52.268;10.506;2022-07-29T11:40:15;100698.91;;;25.27;41.12
32638;BME280;19045;52.268;10.506;2022-07-29T11:42:46;100697.41;;;25.29;40.15
32638;BME280;19045;52.268;10.506;2022-07-29T11:45:25;100707.81;;;25.36;40.27
32638;BME280;19045;52.268;10.506;2022-07-29T11:47:58;100697.28;;;25.38;40.13
32638;BME280;19045;52.268;10.506;2022-07-29T11:50:34;100697.91;;;25.47;40.36
32638;BME280;19045;52.268;10.506;2022-07-29T11:53:10;100694.38;;;25.46;40.20
32638;BME280;19045;52.268;10.506;2022-07-29T11:55:38;100700.66;;;25.47;40.04
32638;BME280;19045;52.268;10.506;2022-07-29T11:58:07;100695.44;;;25.42;40.13
32638;BME280;19045;52.268;10.506;2022-07-29T12:00:36;100693.22;;;25.47;39.78
32638;BME280;19045;52.268;10.506;2022-07-29T12:03:06;100699.16;;;25.49;40.11
32638;BME280;19045;52.268;10.506;2022-07-29T12:05:39;100688.28;;;25.53;39.98
32638;BME280;19045;52.268;10.506;2022-07-29T12:08:11;100681.75;;;25.57;39.72
32638;BME280;19045;52.268;10.506;2022-07-29T12:10:38;100680.09;;;25.68;39.45
32638;BME280;19045;52.268;10.506;2022-07-29T12:13:07;100679.81;;;25.74;39.30
32638;BME280;19045;52.268;10.506;2022-07-29T12:15:34;100679.81;;;25.74;38.77
32638;BME280;19045;52.268;10.506;2022-07-29T12:18:10;100681.06;;;25.76;38.69
32638;BME280;19045;52.268;10.506;2022-07-29T12:20:37;100677.41;;;25.72;38.25
32638;BME280;19045;52.268;10.506;2022-07-29T12:23:08;100682.66;;;25.77;37.78
32638;BME280;19045;52.268;10.506;2022-07-29T12:25:37;100671.84;;;25.84;37.47
32638;BME280;19045;52.268;10.506;2022-07-29T12:28:07;100678.16;;;25.85;36.79
32638;BME280;19045;52.268;10.506;2022-07-29T12:30:41;100679.91;;;25.77;34.92
32638;BME280;19045;52.268;10.506;2022-07-29T12:33:19;100678.78;;;25.78;34.39
32638;BME280;19045;52.268;10.506;2022-07-29T12:35:49;100674.03;;;25.79;34.33
32638;BME280;19045;52.268;10.506;2022-07-29T12:38:17;100683.38;;;25.74;32.96
32638;BME280;19045;52.268;10.506;2022-07-29T12:40:45;100676.66;;;25.87;33.80
32638;BME280;19045;52.268;10.506;2022-07-29T12:43:15;100675.84;;;25.87;33.49
32638;BME280;19045;52.268;10.506;2022-07-29T12:45:43;100677.09;;;25.89;33.33
32638;BME280;19045;52.268;10.506;2022-07-29T12:48:11;100674.19;;;25.98;33.33
32638;BME280;19045;52.268;10.506;2022-07-29T12:50:55;100684.13;;;26.02;33.28
32638;BME280;19045;52.268;10.506;2022-07-29T12:53:22;100685.44;;;26.08;32.74